Time;durP1;ratioP1;P1;durP2;ratioP2;P2;SDS_P1;SDS_P2;PMS_P1;PMS_P2;Temp;Humidity;BMP_temperature;BMP_pressure;BME280_temperature;BME280_humidity;BME280_pressure;Samples;Min_cycle;Max_cycle;Signal;HPM_P1;HPM_P2
2021/04/17 00:01:19;;;;;;;26.13;23.33;;;;;;;11.23;100.00;100736.97;5073565;28;20040;-66
2021/04/17 00:03:44;;;;;;;28.90;24.25;;;;;;;11.21;100.00;100719.69;5074772;28;20033;-67
2021/04/17 00:06:11;;;;;;;28.13;22.00;;;;;;;11.04;100.00;100679.88;5074621;28;20039;-67
2021/04/17 00:08:36;;;;;;;25.52;21.45;;;;;;;11.15;100.00;100676.41;5074495;28;20132;-66
2021/04/17 00:11:03;;;;;;;26.98;20.27;;;;;;;11.37;100.00;100707.03;5075028;28;20132;-66
2021/04/17 00:13:29;;;;;;;28.35;21.55;;;;;;;11.36;100.00;100692.25;5074486;28;20024;-67
2021/04/17 00:15:54;;;;;;;28.08;22.73;;;;;;;11.42;100.00;100715.38;5074451;28;20037;-67
2021/04/17 00:18:20;;;;;;;25.90;22.73;;;;;;;11.24;100.00;100690.59;5074421;28;20111;-67
2021/04/17 00:20:46;;;;;;;29.73;25.10;;;;;;;11.13;100.00;100674.84;5074529;28;20055;-67
2021/04/17 00:23:11;;;;;;;26.58;22.15;;;;;;;11.35;100.00;100693.22;5074272;28;20029;-66
2021/04/17 00:25:37;;;;;;;28.33;20.95;;;;;;;10.90;100.00;100614.53;5074867;28;20032;-66
2021/04/17 00:28:02;;;;;;;23.60;16.95;;;;;;;11.27;100.00;100658.84;5074473;28;20027;-66
2021/04/17 00:30:28;;;;;;;23.55;17.52;;;;;;;10.82;100.00;100666.72;5074335;28;20552;-67
2021/04/17 00:32:53;;;;;;;18.45;14.18;;;;;;;10.73;100.00;100670.91;5074308;28;20407;-67
2021/04/17 00:35:19;;;;;;;17.65;12.55;;;;;;;10.89;100.00;100691.50;5074063;28;20107;-66
2021/04/17 00:37:44;;;;;;;16.25;11.65;;;;;;;10.60;100.00;100649.19;5074113;28;20029;-67
2021/04/17 00:40:10;;;;;;;16.02;11.85;;;;;;;10.78;100.00;100688.88;5074192;28;20070;-66
2021/04/17 00:42:35;;;;;;;17.23;11.52;;;;;;;10.69;100.00;100684.34;5074126;28;20108;-66
2021/04/17 00:45:01;;;;;;;20.27;13.20;;;;;;;10.70;100.00;100688.63;5072808;28;20094;-66
2021/04/17 00:47:27;;;;;;;14.60;12.25;;;;;;;10.73;100.00;100694.50;5073981;28;20538;-66
2021/04/17 00:49:52;;;;;;;18.30;13.68;;;;;;;10.58;100.00;100685.97;5074105;28;20112;-66
2021/04/17 00:52:18;;;;;;;19.67;13.98;;;;;;;10.34;100.00;100659.00;5074086;28;20028;-66
2021/04/17 00:54:43;;;;;;;15.18;13.25;;;;;;;10.32;100.00;100655.66;5074033;28;20024;-66
2021/04/17 00:57:09;;;;;;;15.70;13.50;;;;;;;10.31;100.00;100657.44;5073965;28;20027;-66
2021/04/17 00:59:34;;;;;;;17.33;14.43;;;;;;;10.42;100.00;100682.00;5074352;28;20047;-66
2021/04/17 01:02:00;;;;;;;20.48;15.32;;;;;;;10.32;100.00;100687.91;5073919;28;20508;-66
2021/04/17 01:04:34;;;;;;;19.10;13.68;;;;;;;9.84;100.00;100619.84;5073716;28;20043;-66
2021/04/17 01:07:05;;;;;;;17.67;14.23;;;;;;;10.42;100.00;100703.78;5074252;28;20055;-66
2021/04/17 01:10:09;;;;;;;15.68;12.52;;;;;;;10.44;100.00;100688.81;5073956;28;20258;-66
2021/04/17 01:12:39;;;;;;;16.15;11.90;;;;;;;10.59;100.00;100684.19;5011861;28;20378;-67
2021/04/17 01:15:07;;;;;;;16.27;13.55;;;;;;;10.45;100.00;100651.16;5062074;28;20036;-67
2021/04/17 01:17:35;;;;;;;19.10;14.70;;;;;;;10.61;100.00;100690.16;5073681;28;20032;-66
2021/04/17 01:20:43;;;;;;;19.75;14.85;;;;;;;10.52;100.00;100678.56;5073279;28;20484;-66
2021/04/17 01:23:37;;;;;;;17.55;14.00;;;;;;;10.51;100.00;100684.78;5011405;28;20067;-67
2021/04/17 01:26:07;;;;;;;17.70;13.85;;;;;;;10.55;100.00;100675.72;5088419;28;20024;-66
2021/04/17 01:28:37;;;;;;;15.68;13.85;;;;;;;10.48;100.00;100666.66;5073556;28;20024;-66
2021/04/17 01:31:05;;;;;;;16.30;14.07;;;;;;;10.25;100.00;100636.06;5071896;28;20036;-67
2021/04/17 01:33:33;;;;;;;17.52;14.57;;;;;;;10.11;100.00;100637.09;5073026;28;20024;-67
2021/04/17 01:36:01;;;;;;;18.05;14.40;;;;;;;10.21;100.00;100671.31;5073104;28;20119;-67
2021/04/17 01:38:33;;;;;;;17.48;14.13;;;;;;;9.84;100.00;100591.06;5072909;28;20029;-66
2021/04/17 01:41:07;;;;;;;19.42;15.05;;;;;;;10.03;100.00;100632.44;5073092;28;20028;-67
2021/04/17 01:43:33;;;;;;;20.85;15.05;;;;;;;9.93;100.00;100624.41;5071738;28;20400;-67
2021/04/17 01:46:07;;;;;;;18.88;15.60;;;;;;;9.78;100.00;100620.28;5072711;28;20032;-67
2021/04/17 01:48:33;;;;;;;20.63;16.33;;;;;;;9.96;100.00;100654.78;5073014;28;20028;-67
2021/04/17 01:51:00;;;;;;;22.77;17.42;;;;;;;9.91;100.00;100651.66;5072811;28;20035;-67
2021/04/17 01:53:30;;;;;;;26.35;18.83;;;;;;;9.63;100.00;100614.41;5071811;28;20056;-67
2021/04/17 01:55:57;;;;;;;20.35;18.13;;;;;;;9.46;100.00;100612.16;5052578;28;20031;-67
2021/04/17 01:58:26;;;;;;;24.77;19.45;;;;;;;9.33;100.00;100614.81;5052862;28;20033;-67
2021/04/17 02:00:54;;;;;;;23.10;19.37;;;;;;;9.49;100.00;100648.56;5052892;28;20503;-67
2021/04/17 02:03:20;;;;;;;23.67;19.65;;;;;;;9.27;100.00;100624.88;5052719;28;20037;-67
2021/04/17 02:05:51;;;;;;;23.75;20.63;;;;;;;9.33;100.00;100646.19;5053097;28;20040;-67
2021/04/17 02:08:17;;;;;;;27.23;20.15;;;;;;;9.35;100.00;100617.34;5052303;28;20045;-67
2021/04/17 02:10:45;;;;;;;24.85;20.25;;;;;;;9.47;100.00;100650.44;5052730;28;20028;-67
2021/04/17 02:13:11;;;;;;;25.75;20.23;;;;;;;9.35;100.00;100612.94;5052596;28;20450;-67
2021/04/17 02:15:39;;;;;;;25.27;19.95;;;;;;;9.61;100.00;100642.44;5052569;28;20048;-67
2021/04/17 02:18:17;;;;;;;25.00;20.95;;;;;;;9.68;100.00;100656.75;5051355;28;20119;-67
2021/04/17 02:20:47;;;;;;;24.20;20.38;;;;;;;9.52;100.00;100635.28;5053007;28;20532;-67
2021/04/17 02:23:14;;;;;;;24.10;18.77;;;;;;;9.67;100.00;100649.84;5052870;28;20029;-67
2021/04/17 02:25:39;;;;;;;26.92;19.55;;;;;;;9.71;100.00;100629.53;5034696;28;20106;-68
2021/04/17 02:28:07;;;;;;;24.75;19.60;;;;;;;9.94;100.00;100662.72;5052703;28;20478;-67
2021/04/17 02:30:35;;;;;;;26.15;19.50;;;;;;;10.02;100.00;100650.84;5052407;28;20040;-67
2021/04/17 02:33:01;;;;;;;23.48;19.60;;;;;;;10.00;100.00;100650.97;5051388;28;20048;-67
2021/04/17 02:35:27;;;;;;;24.70;19.83;;;;;;;10.12;100.00;100665.81;5052257;28;20024;-67
2021/04/17 02:37:52;;;;;;;24.67;19.35;;;;;;;10.22;100.00;100675.59;5052285;28;20075;-66
2021/04/17 02:40:18;;;;;;;28.30;20.20;;;;;;;9.92;100.00;100653.31;5052350;28;20067;-66
2021/04/17 02:42:43;;;;;;;29.65;22.10;;;;;;;10.02;100.00;100679.66;5052952;28;20033;-66
2021/04/17 02:45:09;;;;;;;24.63;20.48;;;;;;;9.86;100.00;100659.03;5052307;28;20502;-66
2021/04/17 02:47:35;;;;;;;24.40;19.92;;;;;;;9.69;100.00;100678.56;5052057;28;20040;-66
2021/04/17 02:50:00;;;;;;;27.45;20.85;;;;;;;9.49;100.00;100687.81;5052419;28;20024;-65
2021/04/17 02:52:26;;;;;;;27.05;21.42;;;;;;;9.49;100.00;100639.91;5052001;28;20020;-66
2021/04/17 02:54:51;;;;;;;27.88;22.17;;;;;;;9.62;100.00;100678.16;5052046;28;20067;-66
2021/04/17 02:57:17;;;;;;;26.83;20.92;;;;;;;9.62;100.00;100662.47;5052584;28;20091;-66
2021/04/17 02:59:42;;;;;;;25.58;21.23;;;;;;;9.36;100.00;100598.06;5052241;28;20060;-66
2021/04/17 03:02:08;;;;;;;26.67;21.23;;;;;;;9.56;100.00;100665.50;5051960;28;20033;-66
2021/04/17 03:04:33;;;;;;;31.13;22.88;;;;;;;9.19;100.00;100623.63;5051860;28;20036;-65
2021/04/17 03:06:59;;;;;;;28.35;22.17;;;;;;;9.39;100.00;100639.72;5052074;28;20031;-66
2021/04/17 03:09:24;;;;;;;27.67;22.17;;;;;;;9.56;100.00;100665.50;5052560;28;20041;-66
2021/04/17 03:11:50;;;;;;;27.13;21.08;;;;;;;9.30;100.00;100632.50;5052152;28;20103;-66
2021/04/17 03:14:15;;;;;;;27.50;20.77;;;;;;;9.55;100.00;100666.47;5052361;28;20064;-66
2021/04/17 03:16:42;;;;;;;26.70;21.02;;;;;;;9.62;100.00;100667.69;5051851;28;20112;-66
2021/04/17 03:19:07;;;;;;;28.35;21.63;;;;;;;9.46;100.00;100657.47;5051963;28;20053;-66
2021/04/17 03:21:33;;;;;;;24.48;19.17;;;;;;;9.62;100.00;100659.00;5051941;28;20029;-66
2021/04/17 03:23:58;;;;;;;22.60;18.88;;;;;;;9.17;100.00;100624.69;5051763;28;20032;-66
2021/04/17 03:26:24;;;;;;;24.85;17.90;;;;;;;9.52;100.00;100661.44;5051863;28;20025;-66
2021/04/17 03:28:49;;;;;;;21.15;17.35;;;;;;;9.22;100.00;100622.59;5052181;28;20489;-66
2021/04/17 03:31:15;;;;;;;23.88;18.50;;;;;;;9.34;100.00;100654.88;5051673;28;20397;-66
2021/04/17 03:33:41;;;;;;;25.63;19.73;;;;;;;9.20;100.00;100633.16;5051535;28;20033;-66
2021/04/17 03:36:07;;;;;;;26.30;20.65;;;;;;;9.13;100.00;100665.06;5051371;28;20028;-66
2021/04/17 03:38:33;;;;;;;23.77;20.52;;;;;;;8.87;100.00;100664.25;5051416;28;20079;-66
2021/04/17 03:40:58;;;;;;;29.23;23.65;;;;;;;8.84;100.00;100659.22;5051654;28;20556;-66
2021/04/17 03:43:23;;;;;;;27.48;21.58;;;;;;;8.91;100.00;100660.47;5050311;28;20112;-66
2021/04/17 03:45:49;;;;;;;27.17;20.65;;;;;;;8.82;100.00;100661.94;5051390;28;20053;-67
2021/04/17 03:48:14;;;;;;;28.25;21.73;;;;;;;7.90;100.00;100578.47;5052154;28;20025;-66
2021/04/17 03:50:40;;;;;;;31.42;23.83;;;;;;;8.32;100.00;100652.25;5055133;28;20025;-67
2021/04/17 03:53:05;;;;;;;28.73;21.52;;;;;;;8.40;100.00;100663.06;5054923;28;20082;-67
2021/04/17 03:55:31;;;;;;;24.48;20.52;;;;;;;8.37;100.00;100671.06;5055143;28;20082;-67
2021/04/17 03:57:57;;;;;;;28.08;21.95;;;;;;;8.42;100.00;100676.88;5055236;28;20102;-67
2021/04/17 04:00:23;;;;;;;22.13;18.23;;;;;;;8.12;100.00;100651.78;5054823;28;20032;-67
2021/04/17 04:02:49;;;;;;;22.42;16.85;;;;;;;7.98;100.00;100676.19;5074288;28;20032;-67
2021/04/17 04:05:15;;;;;;;22.58;17.35;;;;;;;7.93;100.00;100674.81;5074735;28;20021;-67
2021/04/17 04:07:41;;;;;;;23.85;18.83;;;;;;;7.86;100.00;100637.00;5074544;28;20073;-67
2021/04/17 04:10:08;;;;;;;19.85;16.73;;;;;;;7.84;100.00;100652.75;5074944;28;20025;-67
2021/04/17 04:12:34;;;;;;;21.70;17.08;;;;;;;7.76;100.00;100658.47;5073335;28;20044;-68
2021/04/17 04:15:00;;;;;;;23.70;16.40;;;;;;;7.94;100.00;100694.75;5074367;28;20036;-67
2021/04/17 04:17:26;;;;;;;19.20;16.30;;;;;;;7.86;100.00;100684.78;5073693;28;20043;-67
2021/04/17 04:19:52;;;;;;;20.80;17.05;;;;;;;7.61;100.00;100656.00;5073351;28;20029;-67
2021/04/17 04:22:17;;;;;;;19.00;16.95;;;;;;;7.94;100.00;100690.38;5074011;28;20413;-67
2021/04/17 04:24:42;;;;;;;19.20;15.25;;;;;;;7.82;100.00;100645.00;5073436;28;20070;-67
2021/04/17 04:27:08;;;;;;;19.10;16.02;;;;;;;8.23;100.00;100695.47;5074639;28;20067;-67
2021/04/17 04:29:34;;;;;;;17.58;14.13;;;;;;;7.84;100.00;100651.94;5073377;28;20028;-67
2021/04/17 04:31:59;;;;;;;18.45;15.70;;;;;;;8.01;100.00;100664.72;5074410;28;20040;-68
2021/04/17 04:34:24;;;;;;;23.20;15.70;;;;;;;8.19;100.00;100687.00;5074747;28;20024;-67
2021/04/17 04:36:50;;;;;;;19.00;15.10;;;;;;;8.29;100.00;100690.69;5074205;28;20280;-67
2021/04/17 04:39:15;;;;;;;16.35;13.82;;;;;;;8.20;100.00;100678.25;5074511;28;20024;-67
2021/04/17 04:41:41;;;;;;;16.98;13.13;;;;;;;8.23;100.00;100688.50;5061723;28;20120;-67
2021/04/17 04:44:06;;;;;;;16.38;13.70;;;;;;;8.14;100.00;100675.22;5053697;28;20029;-68
2021/04/17 04:46:33;;;;;;;17.38;14.23;;;;;;;8.15;100.00;100675.09;5052631;28;20033;-68
2021/04/17 04:48:58;;;;;;;16.90;12.52;;;;;;;8.00;100.00;100676.09;5050979;28;20408;-67
2021/04/17 04:51:24;;;;;;;14.68;12.02;;;;;;;7.86;100.00;100676.97;5051591;28;20041;-67
2021/04/17 04:53:50;;;;;;;13.93;10.95;;;;;;;7.82;100.00;100671.09;5049956;28;20465;-67
2021/04/17 04:56:15;;;;;;;17.50;12.98;;;;;;;7.75;100.00;100674.22;5052367;28;20040;-67
2021/04/17 04:58:41;;;;;;;15.43;12.68;;;;;;;7.82;100.00;100660.66;5052980;28;20032;-67
2021/04/17 05:01:06;;;;;;;16.77;12.45;;;;;;;7.68;100.00;100652.06;5052284;28;20420;-67
2021/04/17 05:03:32;;;;;;;14.23;10.40;;;;;;;7.76;100.00;100668.91;5054090;28;20032;-67
2021/04/17 05:05:57;;;;;;;14.82;11.30;;;;;;;7.60;100.00;100644.72;5053846;28;20025;-67
2021/04/17 05:08:23;;;;;;;13.43;9.50;;;;;;;7.87;100.00;100668.22;5048075;28;20472;-67
2021/04/17 05:10:48;;;;;;;12.90;10.15;;;;;;;7.98;100.00;100683.19;5050576;28;20041;-67
2021/04/17 05:13:14;;;;;;;12.73;10.10;;;;;;;7.95;100.00;100679.00;5065636;28;20525;-66
2021/04/17 05:15:39;;;;;;;13.20;9.35;;;;;;;7.97;100.00;100679.75;5049738;28;20041;-66
2021/04/17 05:18:05;;;;;;;13.23;10.18;;;;;;;7.71;100.00;100638.81;5050621;28;20543;-67
2021/04/17 05:20:30;;;;;;;12.32;9.75;;;;;;;7.91;100.00;100684.53;5049275;28;20036;-69
2021/04/17 05:22:56;;;;;;;12.77;9.10;;;;;;;7.66;100.00;100653.91;5049207;28;20780;-67
2021/04/17 05:25:21;;;;;;;14.73;9.85;;;;;;;7.88;100.00;100698.59;5049351;28;20032;-66
2021/04/17 05:27:47;;;;;;;13.43;9.43;;;;;;;7.63;100.00;100662.78;5049137;28;20499;-66
2021/04/17 05:30:13;;;;;;;12.43;9.70;;;;;;;7.75;100.00;100669.00;5047868;28;20032;-66
2021/04/17 05:32:40;;;;;;;11.95;10.00;;;;;;;8.00;100.00;100704.81;5046742;28;20459;-66
2021/04/17 05:35:07;;;;;;;12.18;9.35;;;;;;;8.03;100.00;100702.84;5050466;28;20028;-67
2021/04/17 05:37:32;;;;;;;12.10;9.00;;;;;;;8.03;100.00;100705.44;5045855;28;20492;-67
2021/04/17 05:39:58;;;;;;;10.93;8.25;;;;;;;7.82;100.00;100667.66;5050346;28;20025;-66
2021/04/17 05:42:23;;;;;;;14.05;9.90;;;;;;;7.94;100.00;100694.75;5049358;28;20571;-66
2021/04/17 05:44:49;;;;;;;12.30;9.77;;;;;;;8.00;100.00;100702.22;5050246;28;20033;-66
2021/04/17 05:47:14;;;;;;;13.35;10.00;;;;;;;8.05;100.00;100697.50;5065342;28;20036;-66
2021/04/17 05:49:40;;;;;;;12.80;9.90;;;;;;;8.03;100.00;100686.31;5049832;28;20037;-66
2021/04/17 05:52:05;;;;;;;12.57;9.65;;;;;;;7.76;100.00;100648.03;5049599;28;20033;-67
2021/04/17 05:54:31;;;;;;;12.98;9.32;;;;;;;7.88;100.00;100659.44;5050097;28;20043;-67
2021/04/17 05:56:56;;;;;;;13.45;9.85;;;;;;;8.18;100.00;100682.72;5048681;28;20552;-65
2021/04/17 05:59:21;;;;;;;11.65;9.50;;;;;;;8.08;100.00;100673.81;5049937;28;20025;-68
2021/04/17 06:01:47;;;;;;;10.38;9.13;;;;;;;7.91;100.00;100640.16;5049851;28;20118;-68
2021/04/17 06:04:14;;;;;;;12.75;9.52;;;;;;;8.24;100.00;100677.09;5049424;28;20033;-68
2021/04/17 06:06:40;;;;;;;12.43;9.50;;;;;;;8.04;100.00;100634.03;5045564;28;20553;-69
2021/04/17 06:09:06;;;;;;;12.73;9.57;;;;;;;7.98;100.00;100633.59;5047910;28;20045;-68
2021/04/17 06:11:31;;;;;;;11.13;9.40;;;;;;;8.16;100.00;100671.53;5047306;28;20055;-68
2021/04/17 06:13:56;;;;;;;17.13;11.77;;;;;;;7.97;100.00;100618.88;5046908;28;20408;-68
2021/04/17 06:16:22;;;;;;;13.10;10.35;;;;;;;8.00;100.00;100616.91;5046560;28;20058;-67
2021/04/17 06:18:47;;;;;;;14.65;9.70;;;;;;;8.23;100.00;100649.34;5046539;28;20508;-67
2021/04/17 06:21:13;;;;;;;12.70;9.27;;;;;;;8.32;100.00;100647.03;5047438;28;20740;-67
2021/04/17 06:23:39;;;;;;;14.18;10.15;;;;;;;8.27;100.00;100634.31;5049075;28;20449;-67
2021/04/17 06:26:04;;;;;;;10.07;8.07;;;;;;;8.08;100.00;100602.50;5049046;28;20020;-67
2021/04/17 06:28:31;;;;;;;13.55;9.85;;;;;;;8.14;100.00;100607.31;5047674;28;20108;-67
2021/04/17 06:30:57;;;;;;;14.48;11.05;;;;;;;8.28;100.00;100605.47;5046461;28;20024;-67
2021/04/17 06:33:22;;;;;;;10.82;8.57;;;;;;;7.93;100.00;100555.59;5047863;28;20044;-67
2021/04/17 06:35:48;;;;;;;11.73;8.43;;;;;;;7.94;100.00;100548.63;5047618;28;20239;-68
2021/04/17 06:38:15;;;;;;;12.02;7.97;;;;;;;8.65;100.00;100625.69;5046761;28;20036;-66
2021/04/17 06:40:42;;;;;;;13.63;9.25;;;;;;;8.80;100.00;100644.69;5048004;28;20017;-66
2021/04/17 06:43:08;;;;;;;9.48;7.50;;;;;;;8.87;100.00;100632.88;5047208;28;20063;-68
2021/04/17 06:45:36;;;;;;;10.75;8.43;;;;;;;8.64;100.00;100624.00;5047746;28;20119;-67
2021/04/17 06:48:07;;;;;;;13.52;8.52;;;;;;;8.85;100.00;100640.00;5046392;28;20484;-66
2021/04/17 06:50:37;;;;;;;8.52;6.38;;;;;;;8.97;100.00;100634.75;5060592;28;20025;-67
2021/04/17 06:53:06;;;;;;;10.75;8.32;;;;;;;9.18;100.00;100642.06;5047324;28;20033;-66
2021/04/17 06:55:32;;;;;;;13.80;8.85;;;;;;;8.74;100.00;100599.78;5051519;28;20044;-66
2021/04/17 06:57:59;;;;;;;12.35;8.07;;;;;;;8.98;100.00;100638.22;5050783;28;20021;-69
2021/04/17 07:00:25;;;;;;;12.02;8.52;;;;;;;9.01;100.00;100590.97;5048991;28;20038;-69
2021/04/17 07:02:52;;;;;;;11.20;7.60;;;;;;;9.46;100.00;100638.31;5048499;28;20029;-69
2021/04/17 07:05:19;;;;;;;11.13;7.32;;;;;;;9.50;100.00;100626.69;5050451;28;20037;-69
2021/04/17 07:07:44;;;;;;;10.48;7.57;;;;;;;9.46;100.00;100627.88;5049981;28;20049;-69
2021/04/17 07:10:11;;;;;;;10.35;6.57;;;;;;;9.77;100.00;100625.66;5050751;28;20358;-69
2021/04/17 07:12:36;;;;;;;9.23;6.70;;;;;;;9.54;100.00;100617.66;5050493;28;20029;-68
2021/04/17 07:15:06;;;;;;;10.30;7.80;;;;;;;9.86;100.00;100590.97;5050494;28;20047;-69
2021/04/17 07:17:32;;;;;;;;;;;;;;;10.08;100.00;100627.69;5052444;28;20464;-68
2021/04/17 07:20:00;;;;;;;8.68;6.57;;;;;;;9.96;100.00;100593.72;5051973;28;19916;-68
2021/04/17 07:22:28;;;;;;;8.43;5.95;;;;;;;9.83;100.00;100591.19;5052271;28;20025;-68
2021/04/17 07:24:56;;;;;;;11.50;6.47;;;;;;;10.10;100.00;100620.56;5054093;28;20055;-69
2021/04/17 07:27:42;;;;;;;7.25;4.68;;;;;;;10.21;100.00;100624.16;5055815;28;20029;-69
2021/04/17 07:30:16;;;;;;;8.38;5.65;;;;;;;10.51;100.00;100616.63;5055777;28;20029;-68
2021/04/17 07:32:47;;;;;;;8.25;6.18;;;;;;;10.54;100.00;100621.66;5056012;28;20021;-68
2021/04/17 07:35:18;;;;;;;8.27;5.43;;;;;;;10.14;100.00;100564.38;5054407;28;20120;-69
2021/04/17 07:37:46;;;;;;;6.40;4.43;;;;;;;10.44;100.00;100591.84;5054368;28;20024;-69
2021/04/17 07:40:23;;;;;;;8.85;6.25;;;;;;;10.76;100.00;100620.00;5053993;28;20068;-69
2021/04/17 07:42:54;;;;;;;8.27;5.55;;;;;;;10.84;100.00;100621.09;5055571;28;20028;-68
2021/04/17 07:45:35;;;;;;;10.00;6.45;;;;;;;10.71;100.00;100594.16;5055698;28;20523;-68
2021/04/17 07:48:18;;;;;;;7.82;5.22;;;;;;;11.06;100.00;100614.16;5054440;28;20036;-68
2021/04/17 07:50:44;;;;;;;7.03;5.40;;;;;;;10.88;100.00;100606.78;5055623;28;20029;-68
2021/04/17 07:53:31;;;;;;;8.02;5.57;;;;;;;11.13;100.00;100617.13;5055313;28;20022;-68
2021/04/17 07:55:57;;;;;;;8.32;5.15;;;;;;;10.99;100.00;100589.38;5055451;28;20195;-69
2021/04/17 07:58:23;;;;;;;7.30;5.45;;;;;;;11.07;100.00;100616.69;5055263;28;20541;-68
2021/04/17 08:00:49;;;;;;;10.85;5.85;;;;;;;11.10;100.00;100615.56;5055056;28;20056;-69
2021/04/17 08:03:18;;;;;;;9.45;6.03;;;;;;;10.85;100.00;100593.91;5055338;28;20484;-68
2021/04/17 08:05:44;;;;;;;7.20;4.55;;;;;;;11.00;100.00;100568.28;5053625;28;20064;-68
2021/04/17 08:08:10;;;;;;;8.15;5.25;;;;;;;11.21;100.00;100604.25;5054856;28;20052;-68
2021/04/17 08:10:36;;;;;;;5.80;3.95;;;;;;;10.95;100.00;100607.13;5054994;28;20025;-68
2021/04/17 08:13:03;;;;;;;7.15;4.18;;;;;;;10.60;100.00;100592.34;5055006;28;20035;-67
2021/04/17 08:15:31;;;;;;;6.47;5.18;;;;;;;10.63;100.00;100559.81;5053456;28;20025;-68
2021/04/17 08:17:57;;;;;;;5.80;4.20;;;;;;;11.02;100.00;100591.75;5055093;28;20028;-68
2021/04/17 08:20:23;;;;;;;6.97;4.70;;;;;;;11.12;100.00;100587.44;5053573;28;20040;-68
2021/04/17 08:22:52;;;;;;;6.43;3.85;;;;;;;10.95;100.00;100570.41;5054647;28;20029;-69
2021/04/17 08:25:22;;;;;;;6.88;4.10;;;;;;;10.91;100.00;100597.00;5054722;28;20029;-67
2021/04/17 08:27:48;;;;;;;;;;;;;;;11.01;100.00;100601.41;5055286;28;20036;-68
2021/04/17 08:30:26;;;;;;;9.05;5.00;;;;;;;10.59;100.00;100558.38;5069965;28;19915;-67
2021/04/17 08:32:52;;;;;;;7.72;4.50;;;;;;;10.68;100.00;100590.94;5054997;28;20036;-68
2021/04/17 08:35:22;;;;;;;7.53;5.25;;;;;;;11.07;100.00;100579.13;5054633;28;20108;-68
2021/04/17 08:37:51;;;;;;;7.10;4.50;;;;;;;10.86;100.00;100563.25;5054736;28;20083;-68
2021/04/17 08:40:32;;;;;;;5.43;4.22;;;;;;;10.95;100.00;100573.03;5054501;28;20025;-68
2021/04/17 08:42:57;;;;;;;5.85;3.45;;;;;;;10.57;100.00;100545.41;5054453;28;20051;-68
2021/04/17 08:45:23;;;;;;;7.97;4.50;;;;;;;10.87;100.00;100567.59;5054756;28;20029;-68
2021/04/17 08:47:56;;;;;;;6.35;4.47;;;;;;;10.88;100.00;100564.81;5054801;28;20021;-68
2021/04/17 08:50:30;;;;;;;6.60;3.70;;;;;;;10.79;100.00;100564.72;5054395;28;20059;-68
2021/04/17 08:53:11;;;;;;;7.10;4.68;;;;;;;10.72;100.00;100532.06;5053048;28;20025;-68
2021/04/17 08:55:36;;;;;;;6.82;4.35;;;;;;;11.14;100.00;100558.47;5054372;28;20029;-68
2021/04/17 08:58:24;;;;;;;7.68;4.45;;;;;;;11.00;100.00;100518.47;5054503;28;20439;-68
2021/04/17 09:00:52;;;;;;;7.18;3.63;;;;;;;10.85;100.00;100559.00;5052754;28;20123;-68
2021/04/17 09:03:43;;;;;;;8.52;4.32;;;;;;;10.99;100.00;100547.41;5054320;28;20091;-69
2021/04/17 09:06:17;;;;;;;5.25;3.55;;;;;;;11.19;100.00;100546.66;5054444;28;20033;-69
2021/04/17 09:08:43;;;;;;;5.40;3.60;;;;;;;11.12;100.00;100511.38;5053636;28;20527;-69
2021/04/17 09:11:35;;;;;;;7.38;4.57;;;;;;;11.42;100.00;100534.31;5053892;28;20029;-68
2021/04/17 09:14:00;;;;;;;8.90;4.38;;;;;;;11.64;100.00;100540.44;5053762;28;20017;-68
2021/04/17 09:16:37;;;;;;;6.40;3.92;;;;;;;11.26;100.00;100505.84;5053887;28;20033;-68
2021/04/17 09:19:02;;;;;;;6.40;4.53;;;;;;;11.18;100.00;100499.56;5053759;28;20078;-68
2021/04/17 09:21:28;;;;;;;6.03;3.22;;;;;;;11.65;100.00;100513.25;5052428;28;20036;-68
2021/04/17 09:23:54;;;;;;;6.93;4.25;;;;;;;11.42;100.00;100504.63;5053680;28;20028;-68
2021/04/17 09:26:45;;;;;;;5.57;3.75;;;;;;;11.45;100.00;100505.19;5052295;28;20389;-68
2021/04/17 09:29:17;;;;;;;7.28;4.07;;;;;;;11.75;100.00;100507.09;5051405;28;20029;-68
2021/04/17 09:31:42;;;;;;;6.20;4.13;;;;;;;11.75;100.00;100453.75;5053458;28;20035;-68
2021/04/17 09:34:13;;;;;;;5.72;3.72;;;;;;;11.88;100.00;100485.06;5053966;28;20025;-67
2021/04/17 09:36:38;;;;;;;7.07;4.15;;;;;;;12.13;100.00;100481.22;5053441;28;20048;-68
2021/04/17 09:39:33;;;;;;;8.60;6.00;;;;;;;12.64;100.00;100477.72;5053336;28;20030;-68
2021/04/17 09:42:03;;;;;;;6.90;5.03;;;;;;;12.61;100.00;100484.06;5044278;28;20492;-66
2021/04/17 09:44:46;;;;;;;5.45;3.78;;;;;;;12.26;100.00;100471.34;5053396;28;20071;-67
2021/04/17 09:47:14;;;;;;;7.60;4.10;;;;;;;11.95;100.00;100450.31;5052694;28;20024;-68
2021/04/17 09:49:45;;;;;;;8.52;3.85;;;;;;;11.64;100.00;100430.16;5053163;28;20139;-67
2021/04/17 09:52:16;;;;;;;5.60;3.97;;;;;;;11.91;100.00;100467.25;5053437;28;20498;-68
2021/04/17 09:54:42;;;;;;;5.63;3.72;;;;;;;11.94;100.00;100434.66;5053071;28;20029;-68
2021/04/17 09:57:08;;;;;;;6.55;4.00;;;;;;;12.24;100.00;100468.00;5052917;28;20401;-68
2021/04/17 09:59:35;;;;;;;6.13;3.42;;;;;;;11.81;100.00;100434.84;5052901;28;20468;-68
2021/04/17 10:02:02;;;;;;;6.05;3.75;;;;;;;11.66;100.00;100423.00;5051566;28;20488;-68
2021/04/17 10:04:51;;;;;;;5.10;3.35;;;;;;;11.69;100.00;100425.38;5052846;28;20083;-68
2021/04/17 10:07:18;;;;;;;6.93;3.67;;;;;;;12.04;100.00;100454.75;5051804;28;20407;-68
2021/04/17 10:10:06;;;;;;;6.35;3.78;;;;;;;11.53;100.00;100361.03;5053113;28;20108;-68
2021/04/17 10:12:32;;;;;;;4.75;3.08;;;;;;;11.70;100.00;100414.75;5051551;28;20029;-68
2021/04/17 10:15:16;;;;;;;6.35;4.13;;;;;;;12.28;100.00;100446.59;5051272;28;20565;-68
2021/04/17 10:17:42;;;;;;;9.85;3.53;;;;;;;12.08;100.00;100433.50;5052703;28;20029;-68
2021/04/17 10:20:10;;;;;;;5.00;3.35;;;;;;;12.24;100.00;100433.84;5052624;28;20049;-68
2021/04/17 10:22:36;;;;;;;5.95;3.72;;;;;;;12.27;100.00;100405.50;5052557;28;20492;-69
2021/04/17 10:25:02;;;;;;;6.13;3.75;;;;;;;12.56;100.00;100441.56;5052255;28;20040;-68
2021/04/17 10:27:34;;;;;;;5.85;4.22;;;;;;;11.97;100.00;100429.97;5052564;28;20075;-68
2021/04/17 10:29:59;;;;;;;5.68;3.38;;;;;;;12.25;100.00;100424.97;5052637;28;20381;-68
2021/04/17 10:32:30;;;;;;;7.65;3.17;;;;;;;12.29;100.00;100424.59;5052426;28;20032;-68
2021/04/17 10:35:09;;;;;;;8.02;3.45;;;;;;;12.52;100.00;100422.59;5052361;28;20546;-69
2021/04/17 10:37:47;;;;;;;5.22;3.60;;;;;;;12.40;100.00;100329.06;5051385;28;20032;-69
2021/04/17 10:40:21;;;;;;;4.97;3.00;;;;;;;12.71;100.00;100397.31;5052539;28;20128;-69
2021/04/17 10:42:48;;;;;;;7.38;3.72;;;;;;;12.92;100.00;100411.16;5052463;28;20021;-68
2021/04/17 10:45:21;;;;;;;5.05;3.67;;;;;;;12.92;100.00;100376.16;5052413;28;20495;-68
2021/04/17 10:47:59;;;;;;;6.80;3.53;;;;;;;13.31;100.00;100408.59;5052037;28;20021;-68
2021/04/17 10:50:26;;;;;;;6.32;3.60;;;;;;;12.88;100.00;100365.06;5052099;28;20029;-69
2021/04/17 10:53:15;;;;;;;6.07;3.50;;;;;;;12.75;100.00;100396.06;5052331;28;20404;-68
2021/04/17 10:55:42;;;;;;;5.65;3.45;;;;;;;13.03;100.00;100388.31;5046713;28;20134;-68
2021/04/17 10:58:25;;;;;;;5.22;3.25;;;;;;;12.98;100.00;100360.63;5052661;28;20029;-68
2021/04/17 11:00:59;;;;;;;6.75;3.70;;;;;;;13.18;100.00;100358.84;5056523;28;20080;-68
2021/04/17 11:03:29;;;;;;;4.38;3.35;;;;;;;13.35;100.00;100386.28;5056458;28;20074;-68
2021/04/17 11:06:10;;;;;;;5.78;3.53;;;;;;;13.23;100.00;100340.84;5056291;28;20040;-68
2021/04/17 11:08:35;;;;;;;4.88;2.88;;;;;;;13.23;100.00;100401.38;5055657;28;20053;-68
2021/04/17 11:11:12;;;;;;;8.23;3.30;;;;;;;13.16;100.00;100399.41;5056336;28;20029;-68
2021/04/17 11:13:41;;;;;;;6.05;3.20;;;;;;;13.40;100.00;100391.97;5055330;28;20032;-68
2021/04/17 11:16:08;;;;;;;6.60;3.33;;;;;;;13.26;100.00;100358.16;5055928;28;20032;-68
2021/04/17 11:18:37;;;;;;;6.30;2.88;;;;;;;13.52;100.00;100395.25;5056110;28;20029;-68